createdAt,value
2022-12-22T00:02:53.416Z,4.00
2022-12-22T00:08:15.078Z,4.00
2022-12-22T00:13:36.055Z,4.00
2022-12-22T00:18:57.606Z,3.90
2022-12-22T00:24:18.467Z,4.00
2022-12-22T00:29:40.077Z,3.90
2022-12-22T00:35:01.856Z,4.00
2022-12-22T00:40:36.145Z,4.10
2022-12-22T00:45:57.629Z,4.30
2022-12-22T00:51:18.783Z,4.70
2022-12-22T00:56:39.974Z,5.00
2022-12-22T01:02:01.378Z,5.20
2022-12-22T01:07:23.627Z,5.20
2022-12-22T01:12:46.740Z,5.00
2022-12-22T01:18:09.156Z,4.70
2022-12-22T01:23:30.228Z,5.00
2022-12-22T01:28:51.064Z,4.90
2022-12-22T01:34:12.187Z,5.10
2022-12-22T01:39:33.416Z,5.10
2022-12-22T01:44:54.328Z,4.80
2022-12-22T01:50:15.341Z,4.90
2022-12-22T01:55:40.793Z,5.00
2022-12-22T02:01:03.630Z,5.00
2022-12-22T02:06:56.202Z,5.10
2022-12-22T02:12:35.604Z,5.60
2022-12-22T02:18:09.238Z,5.40
2022-12-22T02:23:45.551Z,5.50
2022-12-22T02:29:08.248Z,5.50
2022-12-22T02:34:33.068Z,5.60
2022-12-22T02:40:25.554Z,6.00
2022-12-22T02:45:57.602Z,6.40
2022-12-22T02:51:24.708Z,6.40
2022-12-22T02:56:46.238Z,6.60
2022-12-22T03:02:07.359Z,6.10
2022-12-22T03:07:28.574Z,5.50
2022-12-22T03:12:49.375Z,5.20
2022-12-22T03:18:10.461Z,5.00
2022-12-22T03:23:31.722Z,5.10
2022-12-22T03:28:36.564Z,5.10
2022-12-22T03:33:39.496Z,4.90
2022-12-22T03:38:42.039Z,4.80
2022-12-22T03:44:02.953Z,5.00
2022-12-22T03:49:11.269Z,5.20
2022-12-22T03:54:22.763Z,5.30
2022-12-22T03:59:25.321Z,4.70
2022-12-22T04:04:27.960Z,4.40
2022-12-22T04:09:30.572Z,4.30
2022-12-22T04:14:34.606Z,4.20
2022-12-22T04:19:37.535Z,4.10
2022-12-22T04:24:40.093Z,4.00
2022-12-22T04:29:42.604Z,4.00
2022-12-22T04:34:45.108Z,3.90
2022-12-22T04:39:47.645Z,3.80
2022-12-22T04:44:50.702Z,3.70
2022-12-22T04:49:55.663Z,3.60
2022-12-22T04:54:58.375Z,3.40
2022-12-22T05:00:01.153Z,3.30
2022-12-22T05:05:04.345Z,3.20
2022-12-22T05:10:07.709Z,2.90
2022-12-22T05:15:10.614Z,2.80
2022-12-22T05:20:13.369Z,2.80
2022-12-22T05:25:16.784Z,2.90
2022-12-22T05:30:20.216Z,2.80
2022-12-22T05:35:22.832Z,2.80
2022-12-22T05:40:25.330Z,3.00
2022-12-22T05:45:27.949Z,2.90
2022-12-22T05:50:31.767Z,2.80
2022-12-22T05:55:39.633Z,2.80
2022-12-22T06:00:42.282Z,2.70
2022-12-22T06:05:44.870Z,2.90
2022-12-22T06:10:47.539Z,2.90
2022-12-22T06:15:50.118Z,3.00
2022-12-22T06:20:53.528Z,3.10
2022-12-22T06:25:57.308Z,3.10
2022-12-22T06:30:59.962Z,3.20
2022-12-22T06:36:07.206Z,3.00
2022-12-22T06:41:09.810Z,3.10
2022-12-22T06:46:12.229Z,3.10
2022-12-22T06:51:14.834Z,3.70
2022-12-22T06:56:17.413Z,3.90
2022-12-22T07:01:20.013Z,4.20
2022-12-22T07:06:22.630Z,5.90
2022-12-22T07:11:25.147Z,5.90
2022-12-22T07:16:27.663Z,5.00
2022-12-22T07:21:30.315Z,6.20
2022-12-22T07:26:32.875Z,6.00
2022-12-22T07:31:35.786Z,5.70
2022-12-22T07:36:38.330Z,5.70
2022-12-22T07:41:59.306Z,5.30
2022-12-22T07:47:02.406Z,6.00
2022-12-22T07:52:05.289Z,5.70
2022-12-22T07:57:07.848Z,5.30
2022-12-22T08:02:12.472Z,4.80
2022-12-22T08:07:15.137Z,4.60
2022-12-22T08:12:17.664Z,4.50
2022-12-22T08:17:20.467Z,4.50
2022-12-22T08:22:24.264Z,4.60
2022-12-22T08:27:38.350Z,4.70
2022-12-22T08:32:47.091Z,4.80
2022-12-22T08:37:50.949Z,4.90
2022-12-22T08:43:07.483Z,5.40
2022-12-22T08:48:10.832Z,5.20
2022-12-22T08:53:30.134Z,5.50
2022-12-22T08:58:35.925Z,5.70
2022-12-22T09:03:38.532Z,5.60
2022-12-22T09:08:41.149Z,5.60
2022-12-22T09:13:43.621Z,5.60
2022-12-22T09:18:46.199Z,5.70
2022-12-22T09:23:49.052Z,5.90
2022-12-22T09:28:51.744Z,6.00
2022-12-22T09:33:54.965Z,5.50
2022-12-22T09:38:57.551Z,5.40
2022-12-22T09:44:13.486Z,5.80
2022-12-22T09:49:18.638Z,6.60
2022-12-22T09:54:21.853Z,6.30
2022-12-22T09:59:27.982Z,6.00
2022-12-22T10:04:51.254Z,5.80
2022-12-22T10:09:53.821Z,5.90
2022-12-22T10:14:56.373Z,5.90
2022-12-22T10:20:19.563Z,6.20
2022-12-22T10:25:52.447Z,6.30
2022-12-22T10:31:14.090Z,6.40
2022-12-22T10:36:37.318Z,6.80
2022-12-22T10:41:47.689Z,7.40
2022-12-22T10:46:55.137Z,7.50
2022-12-22T10:52:09.717Z,7.60
2022-12-22T10:57:15.355Z,7.80
2022-12-22T11:02:27.285Z,7.80
2022-12-22T11:07:33.839Z,7.80
2022-12-22T11:13:02.872Z,7.90
2022-12-22T11:18:20.467Z,8.20
2022-12-22T11:23:46.988Z,8.30
2022-12-22T11:29:18.397Z,8.30
2022-12-22T11:35:02.336Z,8.50
2022-12-22T11:40:28.882Z,8.40
2022-12-22T11:45:49.177Z,8.10
2022-12-22T11:51:01.669Z,8.00
2022-12-22T11:56:26.811Z,7.70
2022-12-22T12:01:35.270Z,7.50
2022-12-22T12:07:13.031Z,7.40
2022-12-22T12:12:34.622Z,7.30
2022-12-22T12:17:58.140Z,7.40
2022-12-22T12:23:15.710Z,7.40
2022-12-22T12:28:45.273Z,7.40
2022-12-22T12:33:55.861Z,7.30
2022-12-22T12:39:13.686Z,7.30
2022-12-22T12:44:20.984Z,7.20
2022-12-22T12:49:35.430Z,7.20
2022-12-22T12:54:47.607Z,7.20
2022-12-22T12:59:53.061Z,7.20
2022-12-22T13:05:02.938Z,7.20
2022-12-22T13:10:19.771Z,7.20
2022-12-22T13:15:35.888Z,7.20
2022-12-22T13:20:38.858Z,7.00
2022-12-22T13:25:56.087Z,7.00
2022-12-22T13:31:04.418Z,7.00
2022-12-22T13:36:15.752Z,6.90
2022-12-22T13:41:26.942Z,6.90
2022-12-22T13:46:33.076Z,6.90
2022-12-22T13:51:37.773Z,7.00
2022-12-22T13:56:47.208Z,6.90
2022-12-22T14:02:01.690Z,6.80
2022-12-22T14:07:30.468Z,6.80
2022-12-22T14:12:41.151Z,6.70
2022-12-22T14:17:52.277Z,6.70
2022-12-22T14:23:07.391Z,6.60
2022-12-22T14:28:22.015Z,6.60
2022-12-22T14:33:30.357Z,6.70
2022-12-22T14:38:41.071Z,6.70
2022-12-22T14:43:43.560Z,6.50
2022-12-22T14:48:49.067Z,8.20
2022-12-22T14:53:55.763Z,7.60
2022-12-22T14:59:10.568Z,7.20
2022-12-22T15:04:20.410Z,6.80
2022-12-22T15:09:47.272Z,6.60
2022-12-22T15:14:48.943Z,6.50
2022-12-22T15:19:55.217Z,6.50
2022-12-22T15:24:57.772Z,6.50
2022-12-22T15:30:00.283Z,6.40
2022-12-22T15:35:03.411Z,6.30
2022-12-22T15:40:13.082Z,6.30
2022-12-22T15:45:16.109Z,6.20
2022-12-22T15:50:25.539Z,6.20
2022-12-22T15:55:28.369Z,6.20
2022-12-22T16:00:31.741Z,6.20
2022-12-22T16:05:34.570Z,6.20
2022-12-22T16:10:37.368Z,6.10
2022-12-22T16:15:40.700Z,6.10
2022-12-22T16:20:43.908Z,6.10
2022-12-22T16:25:47.466Z,6.20
2022-12-22T16:30:51.852Z,6.20
2022-12-22T16:35:55.008Z,7.10
2022-12-22T16:40:57.501Z,8.00
2022-12-22T16:46:00.020Z,8.30
2022-12-22T16:51:02.499Z,8.70
2022-12-22T16:56:05.602Z,8.80
2022-12-22T17:01:08.132Z,8.80
2022-12-22T17:06:11.172Z,8.60
2022-12-22T17:11:32.703Z,9.20
2022-12-22T17:16:35.354Z,10.00
2022-12-22T17:21:38.371Z,10.30
2022-12-22T17:26:41.753Z,11.10
2022-12-22T17:31:44.452Z,11.90
2022-12-22T17:36:49.084Z,12.10
2022-12-22T17:41:56.789Z,12.10
2022-12-22T17:47:00.134Z,12.20
2022-12-22T17:52:02.789Z,12.10
2022-12-22T17:57:11.146Z,12.40
2022-12-22T18:02:18.967Z,12.00
2022-12-22T18:07:23.972Z,11.40
2022-12-22T18:12:26.967Z,11.20
2022-12-22T18:17:35.553Z,11.30
2022-12-22T18:22:38.722Z,11.20
2022-12-22T18:27:41.199Z,11.70
2022-12-22T18:32:43.932Z,11.50
2022-12-22T18:37:46.740Z,11.80
2022-12-22T18:42:53.497Z,11.90
2022-12-22T18:47:57.259Z,11.90
2022-12-22T18:53:03.482Z,12.20
2022-12-22T18:58:06.153Z,12.00
2022-12-22T19:03:20.617Z,12.60
2022-12-22T19:08:26.239Z,12.50
2022-12-22T19:13:33.828Z,12.40
2022-12-22T19:18:36.402Z,12.20
2022-12-22T19:23:39.218Z,12.70
2022-12-22T19:28:43.939Z,12.60
2022-12-22T19:33:46.919Z,12.30
2022-12-22T19:38:51.034Z,12.40
2022-12-22T19:43:54.122Z,12.00
2022-12-22T19:48:57.040Z,12.40
2022-12-22T19:54:02.406Z,12.80
2022-12-22T19:59:13.163Z,10.20
2022-12-22T20:04:15.646Z,10.90
2022-12-22T20:09:18.205Z,10.50
2022-12-22T20:14:20.734Z,11.50
2022-12-22T20:19:23.227Z,11.60
2022-12-22T20:24:31.253Z,12.00
2022-12-22T20:29:33.732Z,12.70
2022-12-22T20:34:36.223Z,12.20
2022-12-22T20:39:38.704Z,12.30
2022-12-22T20:45:02.986Z,12.70
2022-12-22T20:50:28.753Z,13.10
2022-12-22T20:55:31.506Z,12.40
2022-12-22T21:00:37.156Z,11.60
2022-12-22T21:05:42.676Z,13.20
2022-12-22T21:10:46.186Z,12.70
2022-12-22T21:15:52.691Z,12.70
2022-12-22T21:20:55.174Z,12.20
2022-12-22T21:25:57.908Z,11.30
2022-12-22T21:31:00.844Z,12.70
2022-12-22T21:42:18.594Z,11.00
2022-12-22T21:47:22.456Z,10.90
2022-12-22T21:52:27.057Z,12.00
2022-12-22T21:57:29.700Z,12.90
2022-12-22T22:02:32.376Z,12.70
2022-12-22T22:07:34.977Z,13.30
2022-12-22T22:12:37.986Z,9.60
2022-12-22T22:17:42.013Z,8.40
2022-12-22T22:22:46.240Z,10.10
2022-12-22T22:27:49.217Z,8.60
2022-12-22T22:32:54.537Z,8.00
2022-12-22T22:37:57.177Z,7.50
2022-12-22T22:42:59.698Z,7.30
2022-12-22T22:48:07.701Z,9.90
2022-12-22T22:53:13.177Z,9.80
2022-12-22T22:58:15.869Z,7.20
2022-12-22T23:03:18.531Z,6.40
2022-12-22T23:08:21.104Z,6.20
2022-12-22T23:13:24.297Z,6.10
2022-12-22T23:18:28.068Z,5.90
2022-12-22T23:23:32.248Z,5.80
2022-12-22T23:28:35.320Z,5.70
2022-12-22T23:33:37.838Z,5.60
2022-12-22T23:38:40.396Z,5.50
2022-12-22T23:43:42.849Z,5.40
2022-12-22T23:48:50.024Z,5.30
2022-12-22T23:53:52.999Z,5.10
2022-12-22T23:58:55.834Z,5.00
